createdAt,value
2023-04-19T00:02:16.757Z,11.80
2023-04-19T00:04:45.018Z,11.80
2023-04-19T00:07:12.361Z,11.80
2023-04-19T00:09:39.672Z,11.90
2023-04-19T00:12:07.743Z,11.80
2023-04-19T00:14:34.610Z,11.80
2023-04-19T00:17:01.553Z,11.70
2023-04-19T00:19:28.476Z,11.80
2023-04-19T00:21:55.578Z,11.80
2023-04-19T00:24:22.447Z,11.80
2023-04-19T00:26:49.609Z,11.70
2023-04-19T00:29:16.644Z,11.70
2023-04-19T00:31:46.521Z,11.70
2023-04-19T00:34:13.674Z,11.70
2023-04-19T00:36:41.256Z,11.70
2023-04-19T00:39:08.200Z,11.80
2023-04-19T00:41:35.216Z,11.70
2023-04-19T00:44:02.061Z,11.50
2023-04-19T00:46:29.182Z,11.40
2023-04-19T00:48:56.631Z,11.40
2023-04-19T00:51:23.739Z,11.40
2023-04-19T00:53:50.825Z,11.50
2023-04-19T00:56:19.162Z,11.40
2023-04-19T00:58:46.642Z,11.50
2023-04-19T01:01:13.889Z,11.40
2023-04-19T01:03:41.058Z,11.40
2023-04-19T01:06:08.177Z,11.30
2023-04-19T01:08:35.026Z,11.10
2023-04-19T01:11:02.471Z,11.00
2023-04-19T01:13:29.529Z,11.00
2023-04-19T01:15:57.833Z,10.90
2023-04-19T01:18:25.827Z,10.80
2023-04-19T01:20:53.020Z,10.70
2023-04-19T01:23:19.966Z,10.60
2023-04-19T01:25:48.114Z,10.50
2023-04-19T01:28:15.311Z,10.40
2023-04-19T01:30:42.932Z,10.30
2023-04-19T01:33:09.803Z,10.30
2023-04-19T01:35:36.730Z,10.20
2023-04-19T01:38:03.742Z,10.20
2023-04-19T01:40:31.703Z,10.10
2023-04-19T01:42:58.908Z,10.10
2023-04-19T01:45:25.764Z,10.00
2023-04-19T01:47:52.920Z,10.10
2023-04-19T01:50:20.554Z,10.00
2023-04-19T01:52:47.450Z,10.00
2023-04-19T01:55:14.262Z,9.90
2023-04-19T01:57:41.062Z,9.90
2023-04-19T02:00:09.026Z,9.90
2023-04-19T02:02:37.991Z,9.80
2023-04-19T02:05:08.599Z,9.70
2023-04-19T02:07:35.836Z,9.70
2023-04-19T02:10:02.820Z,9.60
2023-04-19T02:12:31.152Z,9.60
2023-04-19T02:14:59.602Z,9.60
2023-04-19T02:17:26.677Z,9.60
2023-04-19T02:19:53.665Z,9.60
2023-04-19T02:22:20.931Z,9.50
2023-04-19T02:24:50.251Z,9.60
2023-04-19T02:27:17.415Z,9.50
2023-04-19T02:29:44.527Z,9.50
2023-04-19T02:32:14.586Z,9.40
2023-04-19T02:34:41.451Z,9.40
2023-04-19T02:37:08.736Z,9.30
2023-04-19T02:39:35.897Z,9.30
2023-04-19T02:42:03.091Z,9.20
2023-04-19T02:44:30.779Z,9.20
2023-04-19T02:46:58.161Z,9.20
2023-04-19T02:49:25.090Z,9.20
2023-04-19T02:51:53.283Z,9.10
2023-04-19T02:54:20.136Z,9.00
2023-04-19T02:56:47.217Z,9.00
2023-04-19T02:59:14.078Z,9.00
2023-04-19T03:01:41.155Z,9.00
2023-04-19T03:04:08.194Z,9.00
2023-04-19T03:06:35.014Z,9.10
2023-04-19T03:09:01.782Z,9.10
2023-04-19T03:11:28.550Z,9.20
2023-04-19T03:13:55.610Z,9.10
2023-04-19T03:16:22.544Z,9.00
2023-04-19T03:18:49.722Z,9.00
2023-04-19T03:21:16.695Z,9.00
2023-04-19T03:23:43.879Z,8.90
2023-04-19T03:26:10.717Z,8.90
2023-04-19T03:28:37.592Z,8.90
2023-04-19T03:31:04.556Z,8.90
2023-04-19T03:33:31.655Z,8.90
2023-04-19T03:35:58.530Z,9.00
2023-04-19T03:38:25.419Z,9.10
2023-04-19T03:40:52.267Z,9.10
2023-04-19T03:43:20.757Z,9.00
2023-04-19T03:45:47.616Z,8.90
2023-04-19T03:48:14.384Z,9.00
2023-04-19T03:50:41.189Z,9.00
2023-04-19T03:53:08.196Z,9.00
2023-04-19T03:55:35.108Z,9.00
2023-04-19T03:58:02.225Z,9.00
2023-04-19T04:00:29.360Z,9.00
2023-04-19T04:02:56.602Z,9.00
2023-04-19T04:05:23.617Z,9.00
2023-04-19T04:07:50.642Z,9.10
2023-04-19T04:10:18.621Z,9.10
2023-04-19T04:12:45.504Z,9.20
2023-04-19T04:15:12.673Z,9.20
2023-04-19T04:17:39.550Z,9.10
2023-04-19T04:20:09.377Z,9.10
2023-04-19T04:22:36.144Z,9.10
2023-04-19T04:25:03.002Z,9.10
2023-04-19T04:27:29.883Z,9.00
2023-04-19T04:29:57.292Z,9.00
2023-04-19T04:32:24.512Z,9.20
2023-04-19T04:34:51.517Z,9.30
2023-04-19T04:37:18.381Z,9.30
2023-04-19T04:39:45.209Z,9.50
2023-04-19T04:42:12.312Z,9.50
2023-04-19T04:44:39.470Z,9.50
2023-04-19T04:47:06.454Z,9.50
2023-04-19T04:49:33.599Z,9.60
2023-04-19T04:52:00.646Z,9.60
2023-04-19T04:54:27.924Z,9.60
2023-04-19T04:56:54.883Z,9.70
2023-04-19T04:59:21.823Z,9.60
2023-04-19T05:01:48.685Z,9.40
2023-04-19T05:04:16.239Z,9.30
2023-04-19T05:06:44.649Z,9.40
2023-04-19T05:11:52.669Z,9.40
2023-04-19T05:14:20.321Z,9.60
2023-04-19T05:16:47.270Z,9.60
2023-04-19T05:19:14.527Z,9.60
2023-04-19T05:21:41.650Z,9.70
2023-04-19T05:24:10.113Z,9.90
2023-04-19T05:26:38.312Z,9.80
2023-04-19T05:29:05.433Z,9.80
2023-04-19T05:31:32.533Z,10.00
2023-04-19T05:33:59.482Z,10.00
2023-04-19T05:36:31.016Z,9.90
2023-04-19T05:38:58.969Z,9.90
2023-04-19T05:41:26.292Z,9.90
2023-04-19T05:43:53.148Z,10.00
2023-04-19T05:46:20.122Z,10.00
2023-04-19T05:48:47.197Z,9.90
2023-04-19T05:51:14.621Z,9.90
2023-04-19T05:53:41.819Z,9.90
2023-04-19T05:56:09.456Z,9.90
2023-04-19T05:58:37.249Z,9.90
2023-04-19T06:01:04.717Z,10.10
2023-04-19T06:03:32.942Z,10.40
2023-04-19T06:06:00.321Z,10.50
2023-04-19T06:08:27.329Z,10.40
2023-04-19T06:11:00.133Z,10.50
2023-04-19T06:13:31.947Z,10.50
2023-04-19T06:15:59.939Z,10.60
2023-04-19T06:18:27.112Z,10.60
2023-04-19T06:20:54.351Z,10.70
2023-04-19T06:23:21.496Z,10.70
2023-04-19T06:25:50.963Z,10.80
2023-04-19T06:28:18.309Z,10.90
2023-04-19T06:30:45.541Z,11.00
2023-04-19T06:33:12.813Z,11.00
2023-04-19T06:35:39.940Z,10.90
2023-04-19T06:38:07.803Z,11.00
2023-04-19T06:40:36.292Z,11.10
2023-04-19T06:43:03.315Z,11.00
2023-04-19T06:45:32.822Z,11.00
2023-04-19T06:47:59.789Z,11.30
2023-04-19T06:50:27.260Z,11.30
2023-04-19T06:52:54.246Z,11.30
2023-04-19T06:55:21.596Z,11.20
2023-04-19T06:57:50.812Z,11.30
2023-04-19T07:00:18.444Z,11.30
2023-04-19T07:02:45.701Z,11.40
2023-04-19T07:05:13.524Z,11.40
2023-04-19T07:07:41.372Z,11.60
2023-04-19T07:10:09.769Z,11.60
2023-04-19T07:12:36.612Z,11.60
2023-04-19T07:15:03.778Z,11.60
2023-04-19T07:17:30.702Z,11.70
2023-04-19T07:19:57.666Z,11.90
2023-04-19T07:22:24.501Z,12.00
2023-04-19T07:24:52.276Z,12.10
2023-04-19T07:27:19.716Z,12.20
2023-04-19T07:29:46.983Z,12.20
2023-04-19T07:36:10.424Z,12.20
2023-04-19T07:38:37.264Z,12.60
2023-04-19T07:41:05.729Z,12.90
2023-04-19T07:43:32.600Z,12.80
2023-04-19T07:45:59.589Z,12.70
2023-04-19T07:48:26.695Z,12.80
2023-04-19T07:50:53.860Z,12.90
2023-04-19T07:53:20.766Z,12.90
2023-04-19T07:55:47.813Z,12.90
2023-04-19T07:58:15.226Z,12.80
2023-04-19T08:00:42.251Z,12.60
2023-04-19T08:03:09.443Z,12.90
2023-04-19T08:05:36.952Z,13.10
2023-04-19T08:08:04.224Z,13.30
2023-04-19T08:10:33.650Z,13.40
2023-04-19T08:13:05.037Z,13.40
2023-04-19T08:16:05.106Z,13.30
2023-04-19T08:18:21.801Z,13.30
2023-04-19T08:20:48.821Z,13.40
2023-04-19T08:23:24.082Z,13.20
2023-04-19T08:25:54.753Z,13.40
2023-04-19T08:28:21.669Z,13.50
2023-04-19T08:30:49.020Z,13.70
2023-04-19T08:33:16.180Z,13.60
2023-04-19T08:35:43.666Z,13.60
2023-04-19T08:38:10.505Z,13.70
2023-04-19T08:40:44.388Z,13.90
2023-04-19T08:43:11.535Z,14.10
2023-04-19T08:45:39.595Z,14.30
2023-04-19T08:48:09.923Z,14.50
2023-04-19T08:50:51.995Z,14.30
2023-04-19T08:53:25.936Z,14.20
2023-04-19T08:56:12.739Z,14.20
2023-04-19T08:58:57.992Z,14.20
2023-04-19T09:01:34.991Z,14.60
2023-04-19T09:04:26.539Z,14.50
2023-04-19T09:06:56.039Z,14.70
2023-04-19T09:09:37.288Z,14.80
2023-04-19T09:12:18.567Z,14.80
2023-04-19T09:15:01.289Z,15.10
2023-04-19T09:17:29.826Z,15.30
2023-04-19T09:19:56.792Z,15.40
2023-04-19T09:22:24.395Z,15.40
2023-04-19T09:27:34.801Z,15.40
2023-04-19T09:30:03.731Z,15.30
2023-04-19T09:32:49.059Z,15.40
2023-04-19T09:35:16.685Z,15.50
2023-04-19T09:40:28.139Z,14.90
2023-04-19T09:43:08.881Z,14.70
2023-04-19T09:45:47.459Z,14.90
2023-04-19T09:48:14.412Z,14.90
2023-04-19T09:51:13.798Z,15.70
2023-04-19T09:53:43.460Z,15.90
2023-04-19T09:56:13.260Z,16.10
2023-04-19T09:58:49.940Z,16.20
2023-04-19T10:01:22.706Z,16.80
2023-04-19T10:03:51.595Z,16.80
2023-04-19T10:08:56.367Z,16.60
2023-04-19T10:11:25.380Z,17.00
2023-04-19T10:13:57.530Z,17.00
2023-04-19T10:16:25.022Z,17.20
2023-04-19T10:18:52.981Z,17.40
2023-04-19T10:21:21.099Z,17.50
2023-04-19T10:23:48.636Z,17.00
2023-04-19T10:26:15.588Z,17.10
2023-04-19T10:28:42.760Z,17.10
2023-04-19T10:31:33.033Z,17.10
2023-04-19T10:34:00.210Z,17.10
2023-04-19T10:36:29.180Z,16.60
2023-04-19T10:38:56.418Z,16.80
2023-04-19T10:41:23.613Z,16.90
2023-04-19T10:43:57.945Z,17.30
2023-04-19T10:46:26.446Z,17.30
2023-04-19T10:49:03.255Z,17.00
2023-04-19T10:51:36.111Z,16.80
2023-04-19T10:54:10.256Z,16.70
2023-04-19T10:56:41.072Z,16.70
2023-04-19T10:59:13.680Z,16.70
2023-04-19T11:01:55.038Z,16.50
2023-04-19T11:05:04.186Z,16.50
2023-04-19T11:07:37.651Z,16.60
2023-04-19T11:10:04.915Z,17.00
2023-04-19T11:12:31.764Z,16.90
2023-04-19T11:15:00.656Z,16.50
2023-04-19T11:17:31.810Z,16.70
2023-04-19T11:20:02.564Z,16.70
2023-04-19T11:22:34.086Z,16.70
2023-04-19T11:25:22.164Z,17.00
2023-04-19T11:27:52.237Z,17.30
2023-04-19T11:30:23.002Z,17.20
2023-04-19T11:32:56.136Z,17.70
2023-04-19T11:35:24.843Z,18.30
2023-04-19T11:37:53.284Z,18.00
2023-04-19T11:40:22.859Z,18.10
2023-04-19T11:43:01.076Z,18.00
2023-04-19T11:45:33.126Z,17.70
2023-04-19T11:48:05.174Z,17.30
2023-04-19T11:50:40.714Z,17.10
2023-04-19T11:53:24.832Z,16.90
2023-04-19T11:56:12.129Z,17.30
2023-04-19T11:58:49.941Z,17.10
2023-04-19T12:01:22.325Z,16.90
2023-04-19T12:03:52.161Z,17.20
2023-04-19T12:06:23.985Z,17.30
2023-04-19T12:08:52.301Z,17.60
2023-04-19T12:11:24.433Z,17.70
2023-04-19T12:14:10.222Z,17.80
2023-04-19T12:16:37.439Z,17.60
2023-04-19T12:19:19.763Z,18.00
2023-04-19T12:21:47.636Z,18.10
2023-04-19T12:24:18.650Z,18.30
2023-04-19T12:26:57.254Z,18.30
2023-04-19T12:31:56.178Z,18.30
2023-04-19T12:34:23.153Z,17.90
2023-04-19T12:36:50.195Z,18.00
2023-04-19T12:39:18.145Z,17.90
2023-04-19T12:41:45.120Z,18.00
2023-04-19T12:44:12.005Z,18.00
2023-04-19T12:46:39.414Z,18.20
2023-04-19T12:49:06.776Z,18.50
2023-04-19T12:51:33.921Z,18.70
2023-04-19T12:54:02.489Z,18.40
2023-04-19T12:56:29.442Z,18.20
2023-04-19T12:58:56.492Z,18.10
2023-04-19T13:01:23.970Z,18.40
2023-04-19T13:03:50.922Z,18.90
2023-04-19T13:06:18.221Z,18.90
2023-04-19T13:08:47.778Z,19.30
2023-04-19T13:11:17.969Z,19.50
2023-04-19T13:13:44.719Z,19.50
2023-04-19T13:16:11.747Z,19.30
2023-04-19T13:18:38.849Z,19.60
2023-04-19T13:21:08.052Z,20.00
2023-04-19T13:23:35.790Z,20.80
2023-04-19T13:26:02.611Z,21.20
2023-04-19T13:28:30.388Z,20.90
2023-04-19T13:30:57.404Z,21.30
2023-04-19T13:33:27.349Z,21.60
2023-04-19T13:35:54.705Z,21.80
2023-04-19T13:38:21.630Z,22.30
2023-04-19T13:40:48.448Z,22.20
2023-04-19T13:43:15.673Z,21.90
2023-04-19T13:45:42.928Z,21.40
2023-04-19T13:48:09.750Z,22.40
2023-04-19T13:50:39.491Z,22.60
2023-04-19T13:53:06.588Z,22.10
2023-04-19T13:55:41.817Z,22.00
2023-04-19T13:58:08.638Z,22.30
2023-04-19T14:00:35.566Z,22.40
2023-04-19T14:03:02.818Z,22.90
2023-04-19T14:05:30.328Z,22.50
2023-04-19T14:07:58.709Z,22.60
2023-04-19T14:10:25.845Z,22.60
2023-04-19T14:12:53.106Z,24.10
2023-04-19T14:15:21.108Z,23.00
2023-04-19T14:17:48.383Z,23.60
2023-04-19T14:20:16.615Z,22.70
2023-04-19T14:22:46.691Z,23.20
2023-04-19T14:25:15.566Z,23.70
2023-04-19T14:27:42.699Z,24.70
2023-04-19T14:30:10.080Z,24.40
2023-04-19T14:32:37.496Z,24.80
2023-04-19T14:35:05.215Z,24.40
2023-04-19T14:37:32.159Z,24.90
2023-04-19T14:39:59.403Z,25.80
2023-04-19T14:42:26.404Z,26.10
2023-04-19T14:44:53.862Z,26.10
2023-04-19T14:47:21.608Z,25.80
2023-04-19T14:49:48.750Z,25.00
2023-04-19T14:52:16.487Z,23.90
2023-04-19T14:54:51.193Z,24.60
2023-04-19T14:57:18.374Z,24.50
2023-04-19T14:59:45.871Z,24.40
2023-04-19T15:02:13.861Z,24.80
2023-04-19T15:04:41.801Z,23.80
2023-04-19T15:07:11.118Z,23.80
2023-04-19T15:09:39.012Z,24.10
2023-04-19T15:12:06.075Z,24.70
2023-04-19T15:14:32.954Z,24.30
2023-04-19T15:17:00.028Z,24.20
2023-04-19T15:19:26.950Z,23.90
2023-04-19T15:21:53.801Z,23.20
2023-04-19T15:24:20.669Z,24.70
2023-04-19T15:26:47.550Z,25.00
2023-04-19T15:29:14.972Z,25.60
2023-04-19T15:31:42.008Z,26.00
2023-04-19T15:34:09.247Z,25.70
2023-04-19T15:36:36.639Z,24.70
2023-04-19T15:39:03.535Z,25.40
2023-04-19T15:41:30.252Z,25.40
2023-04-19T15:43:57.733Z,25.00
2023-04-19T15:46:24.686Z,25.20
2023-04-19T15:48:51.645Z,25.30
2023-04-19T15:51:18.880Z,22.80
2023-04-19T15:53:45.747Z,22.10
2023-04-19T15:56:13.685Z,21.20
2023-04-19T15:58:44.518Z,20.50
2023-04-19T16:01:13.048Z,19.50
2023-04-19T16:03:48.170Z,19.30
2023-04-19T16:06:17.699Z,19.00
2023-04-19T16:08:44.673Z,18.70
2023-04-19T16:11:11.599Z,18.60
2023-04-19T16:13:39.115Z,18.30
2023-04-19T16:16:06.730Z,18.50
2023-04-19T16:18:34.942Z,17.80
2023-04-19T16:21:01.788Z,17.90
2023-04-19T16:23:28.852Z,17.90
2023-04-19T16:25:56.896Z,17.70
2023-04-19T16:28:24.158Z,17.60
2023-04-19T16:30:51.346Z,17.60
2023-04-19T16:33:38.577Z,17.30
2023-04-19T16:36:28.105Z,17.20
2023-04-19T16:38:55.273Z,17.30
2023-04-19T16:41:22.055Z,17.20
2023-04-19T16:43:49.054Z,17.30
2023-04-19T16:46:16.774Z,17.10
2023-04-19T16:48:43.898Z,16.70
2023-04-19T16:51:13.631Z,16.50
2023-04-19T16:53:40.413Z,16.70
2023-04-19T16:56:07.256Z,16.60
2023-04-19T16:58:34.053Z,16.70
2023-04-19T17:01:02.276Z,16.60
2023-04-19T17:03:32.087Z,16.40
2023-04-19T17:05:59.112Z,16.60
2023-04-19T17:08:26.878Z,17.00
2023-04-19T17:10:56.088Z,17.00
2023-04-19T17:13:23.121Z,16.80
2023-04-19T17:15:50.308Z,16.90
2023-04-19T17:18:17.287Z,17.00
2023-04-19T17:20:44.327Z,17.60
2023-04-19T17:23:11.476Z,17.60
2023-04-19T17:25:38.318Z,18.40
2023-04-19T17:28:06.031Z,17.70
2023-04-19T17:30:33.336Z,17.80
2023-04-19T17:33:00.622Z,17.40
2023-04-19T17:35:30.106Z,16.60
2023-04-19T17:37:56.875Z,15.90
2023-04-19T17:40:23.954Z,15.20
2023-04-19T23:10:14.993Z,6.40
2023-04-19T23:12:41.909Z,6.40
2023-04-19T23:15:10.621Z,6.40
2023-04-19T23:17:39.782Z,6.40
2023-04-19T23:20:10.036Z,6.40
2023-04-19T23:22:37.535Z,6.40
2023-04-19T23:25:04.840Z,6.20
2023-04-19T23:27:32.450Z,6.20
2023-04-19T23:29:59.539Z,6.10
2023-04-19T23:32:26.422Z,6.10
2023-04-19T23:34:53.364Z,6.10
2023-04-19T23:37:20.844Z,6.10
2023-04-19T23:39:47.701Z,6.10
2023-04-19T23:42:15.013Z,6.20
2023-04-19T23:44:43.865Z,6.20
2023-04-19T23:47:11.176Z,6.20
2023-04-19T23:49:37.941Z,6.10
2023-04-19T23:52:04.912Z,6.20
2023-04-19T23:54:31.794Z,6.10
2023-04-19T23:56:59.197Z,6.10
2023-04-19T23:59:29.168Z,6.00
